sensor_id;sensor_type;location;lat;lon;timestamp;pressure;altitude;pressure_sealevel;temperature;humidity
15260;BME280;34462;51.368;12.364;2023-11-18T00:00:32;37866.25;;;-141.84;97.77
15260;BME280;34462;51.368;12.364;2023-11-18T00:03:02;45227.56;;;-141.84;98.86
15260;BME280;34462;51.368;12.364;2023-11-18T00:05:32;35631.16;;;-141.84;97.03
15260;BME280;34462;51.368;12.364;2023-11-18T00:08:00;34817.06;;;-141.84;96.87
15260;BME280;34462;51.368;12.364;2023-11-18T00:10:29;32371.66;;;-141.84;96.40
15260;BME280;34462;51.368;12.364;2023-11-18T00:12:57;33587.03;;;-141.84;96.87
15260;BME280;34462;51.368;12.364;2023-11-18T00:15:26;23968.16;;;-141.84;93.14
15260;BME280;34462;51.368;12.364;2023-11-18T00:17:54;21342.47;;;-141.84;91.42
15260;BME280;34462;51.368;12.364;2023-11-18T00:20:23;20822.03;;;-141.84;91.17
15260;BME280;34462;51.368;12.364;2023-11-18T00:22:52;20944.00;;;-141.84;91.26
15260;BME280;34462;51.368;12.364;2023-11-18T00:25:20;22001.28;;;-141.84;92.67
15260;BME280;34462;51.368;12.364;2023-11-18T00:27:48;26282.09;;;-141.84;94.86
15260;BME280;34462;51.368;12.364;2023-11-18T00:30:17;26497.91;;;-141.84;94.86
15260;BME280;34462;51.368;12.364;2023-11-18T00:32:45;23046.63;;;-141.84;93.14
15260;BME280;34462;51.368;12.364;2023-11-18T00:35:13;22454.75;;;-141.84;92.71
15260;BME280;34462;51.368;12.364;2023-11-18T00:37:43;22342.91;;;-141.84;92.82
15260;BME280;34462;51.368;12.364;2023-11-18T00:40:12;23575.50;;;-141.84;93.81
15260;BME280;34462;51.368;12.364;2023-11-18T00:42:40;25907.53;;;-141.84;94.86
15260;BME280;34462;51.368;12.364;2023-11-18T00:45:09;24662.00;;;-141.84;94.11
15260;BME280;34462;51.368;12.364;2023-11-18T00:47:39;23789.13;;;-141.84;93.65
15260;BME280;34462;51.368;12.364;2023-11-18T00:50:09;24163.47;;;-141.84;93.65
15260;BME280;34462;51.368;12.364;2023-11-18T00:52:37;21997.19;;;-141.84;92.48
15260;BME280;34462;51.368;12.364;2023-11-18T00:55:09;23831.84;;;-141.84;93.85
15260;BME280;34462;51.368;12.364;2023-11-18T00:57:38;21492.94;;;-141.84;91.67
15260;BME280;34462;51.368;12.364;2023-11-18T01:00:11;22676.44;;;-141.84;93.14
15260;BME280;34462;51.368;12.364;2023-11-18T01:02:43;23860.34;;;-141.84;93.89
15260;BME280;34462;51.368;12.364;2023-11-18T01:05:11;20094.31;;;-141.84;89.73
15260;BME280;34462;51.368;12.364;2023-11-18T01:07:41;20169.53;;;-141.84;90.15
15260;BME280;34462;51.368;12.364;2023-11-18T01:10:12;21202.19;;;-141.84;92.07
15260;BME280;34462;51.368;12.364;2023-11-18T01:12:41;24100.41;;;-141.84;94.42
15260;BME280;34462;51.368;12.364;2023-11-18T01:15:12;27275.66;;;-141.84;95.59
15260;BME280;34462;51.368;12.364;2023-11-18T01:17:41;32141.25;;;-141.84;97.22
15260;BME280;34462;51.368;12.364;2023-11-18T01:20:11;29821.81;;;-141.84;96.22
15260;BME280;34462;51.368;12.364;2023-11-18T01:22:40;25868.88;;;-141.84;94.65
15260;BME280;34462;51.368;12.364;2023-11-18T01:25:11;29065.94;;;-141.84;96.35
15260;BME280;34462;51.368;12.364;2023-11-18T01:27:39;44180.38;;;-141.84;99.58
15260;BME280;34462;51.368;12.364;2023-11-18T01:30:09;55189.84;;;-141.84;100.00
15260;BME280;34462;51.368;12.364;2023-11-18T01:32:37;54140.00;;;-141.84;100.00
15260;BME280;34462;51.368;12.364;2023-11-18T01:35:08;62020.59;;;-141.84;100.00
15260;BME280;34462;51.368;12.364;2023-11-18T01:37:38;69126.50;;;-141.84;100.00
15260;BME280;34462;51.368;12.364;2023-11-18T01:40:07;76245.09;;;-141.84;100.00
15260;BME280;34462;51.368;12.364;2023-11-18T01:42:41;81526.28;;;-141.84;100.00
15260;BME280;34462;51.368;12.364;2023-11-18T01:45:10;86020.75;;;-141.84;100.00
15260;BME280;34462;51.368;12.364;2023-11-18T01:47:40;88137.56;;;-141.84;100.00
15260;BME280;34462;51.368;12.364;2023-11-18T01:50:11;89990.66;;;-141.84;100.00
15260;BME280;34462;51.368;12.364;2023-11-18T01:52:42;91049.97;;;-141.84;100.00
15260;BME280;34462;51.368;12.364;2023-11-18T01:55:13;91579.72;;;-141.84;100.00
15260;BME280;34462;51.368;12.364;2023-11-18T01:57:43;94494.59;;;-141.84;100.00
15260;BME280;34462;51.368;12.364;2023-11-18T02:00:13;97676.88;;;-141.84;100.00
15260;BME280;34462;51.368;12.364;2023-11-18T02:02:45;99534.38;;;-141.84;100.00
15260;BME280;34462;51.368;12.364;2023-11-18T02:05:14;101658.25;;;-141.84;100.00
15260;BME280;34462;51.368;12.364;2023-11-18T02:07:44;104580.41;;;-141.84;100.00
15260;BME280;34462;51.368;12.364;2023-11-18T02:10:14;105909.34;;;-141.84;100.00
15260;BME280;34462;51.368;12.364;2023-11-18T02:12:57;106441.06;;;-141.84;100.00
15260;BME280;34462;51.368;12.364;2023-11-18T02:15:30;108036.56;;;-141.84;100.00
15260;BME280;34462;51.368;12.364;2023-11-18T02:18:02;108302.56;;;-141.84;100.00
15260;BME280;34462;51.368;12.364;2023-11-18T02:20:32;109366.66;;;-141.84;100.00
15260;BME280;34462;51.368;12.364;2023-11-18T02:23:01;109366.66;;;-141.84;100.00
15260;BME280;34462;51.368;12.364;2023-11-18T02:25:34;109100.59;;;-141.84;100.00
15260;BME280;34462;51.368;12.364;2023-11-18T02:28:04;110431.03;;;-141.84;100.00
15260;BME280;34462;51.368;12.364;2023-11-18T02:30:32;112028.13;;;-141.84;100.00
15260;BME280;34462;51.368;12.364;2023-11-18T02:33:11;112560.63;;;-141.84;100.00
15260;BME280;34462;51.368;12.364;2023-11-18T02:35:49;113625.81;;;-141.84;100.00
15260;BME280;34462;51.368;12.364;2023-11-18T02:38:23;113625.81;;;-141.84;100.00
15260;BME280;34462;51.368;12.364;2023-11-18T02:40:59;112560.63;;;-141.84;100.00
15260;BME280;34462;51.368;12.364;2023-11-18T02:43:34;112028.13;;;-141.84;100.00
15260;BME280;34462;51.368;12.364;2023-11-18T02:46:05;111229.50;;;-141.84;100.00
15260;BME280;34462;51.368;12.364;2023-11-18T02:48:34;110963.31;;;-141.84;100.00
15260;BME280;34462;51.368;12.364;2023-11-18T02:51:04;111229.50;;;-141.84;100.00
15260;BME280;34462;51.368;12.364;2023-11-18T02:53:35;111761.88;;;-141.84;100.00
15260;BME280;34462;51.368;12.364;2023-11-18T02:56:04;112560.63;;;-141.84;100.00
15260;BME280;34462;51.368;12.364;2023-11-18T02:58:35;114424.91;;;-141.84;100.00
15260;BME280;34462;51.368;12.364;2023-11-18T03:01:05;116023.56;;;-141.84;100.00
15260;BME280;34462;51.368;12.364;2023-11-18T03:03:35;117089.69;;;-141.84;100.00
15260;BME280;34462;51.368;12.364;2023-11-18T03:06:04;117622.84;;;-141.84;100.00
15260;BME280;34462;51.368;12.364;2023-11-18T03:08:33;117356.25;;;-141.84;100.00
15260;BME280;34462;51.368;12.364;2023-11-18T03:11:01;116823.13;;;-141.84;100.00
15260;BME280;34462;51.368;12.364;2023-11-18T03:13:31;117889.44;;;-141.84;100.00
15260;BME280;34462;51.368;12.364;2023-11-18T03:16:01;118956.03;;;-141.84;100.00
15260;BME280;34462;51.368;12.364;2023-11-18T03:18:31;118956.03;;;-141.84;100.00
15260;BME280;34462;51.368;12.364;2023-11-18T03:20:59;118689.38;;;-141.84;100.00
15260;BME280;34462;51.368;12.364;2023-11-18T03:23:27;117889.44;;;-141.84;100.00
15260;BME280;34462;51.368;12.364;2023-11-18T03:25:55;117356.25;;;-141.84;100.00
15260;BME280;34462;51.368;12.364;2023-11-18T03:28:24;117356.25;;;-141.84;100.00
15260;BME280;34462;51.368;12.364;2023-11-18T03:30:53;117622.84;;;-141.84;100.00
15260;BME280;34462;51.368;12.364;2023-11-18T03:33:23;117889.44;;;-141.84;100.00
15260;BME280;34462;51.368;12.364;2023-11-18T03:35:51;117889.44;;;-141.84;100.00
15260;BME280;34462;51.368;12.364;2023-11-18T03:38:19;117356.25;;;-141.84;100.00
15260;BME280;34462;51.368;12.364;2023-11-18T03:40:48;116823.13;;;-141.84;100.00
15260;BME280;34462;51.368;12.364;2023-11-18T03:43:16;115490.59;;;-141.84;100.00
15260;BME280;34462;51.368;12.364;2023-11-18T03:45:44;112560.63;;;-141.84;100.00
15260;BME280;34462;51.368;12.364;2023-11-18T03:48:12;105909.34;;;-141.84;100.00
15260;BME280;34462;51.368;12.364;2023-11-18T03:50:43;102986.25;;;-141.84;100.00
15260;BME280;34462;51.368;12.364;2023-11-18T03:53:11;100330.69;;;-141.84;100.00
15260;BME280;34462;51.368;12.364;2023-11-18T03:55:39;99003.56;;;-141.84;100.00
15260;BME280;34462;51.368;12.364;2023-11-18T03:58:07;100330.69;;;-141.84;100.00
15260;BME280;34462;51.368;12.364;2023-11-18T04:00:36;100330.69;;;-141.84;100.00
15260;BME280;34462;51.368;12.364;2023-11-18T04:03:04;100596.16;;;-141.84;100.00
15260;BME280;34462;51.368;12.364;2023-11-18T04:05:34;101392.69;;;-141.84;100.00
15260;BME280;34462;51.368;12.364;2023-11-18T04:08:06;100861.66;;;-141.84;100.00
15260;BME280;34462;51.368;12.364;2023-11-18T04:10:34;99799.78;;;-141.84;100.00
15260;BME280;34462;51.368;12.364;2023-11-18T04:13:02;99534.38;;;-141.84;100.00
15260;BME280;34462;51.368;12.364;2023-11-18T04:15:30;95820.25;;;-141.84;100.00
15260;BME280;34462;51.368;12.364;2023-11-18T04:17:59;95024.81;;;-141.84;100.00
15260;BME280;34462;51.368;12.364;2023-11-18T04:20:27;91844.63;;;-141.84;100.00
15260;BME280;34462;51.368;12.364;2023-11-18T04:22:55;92374.47;;;-141.84;100.00
15260;BME280;34462;51.368;12.364;2023-11-18T04:25:25;92109.53;;;-141.84;100.00
15260;BME280;34462;51.368;12.364;2023-11-18T04:27:53;93434.41;;;-141.84;100.00
15260;BME280;34462;51.368;12.364;2023-11-18T04:30:21;93169.38;;;-141.84;100.00
15260;BME280;34462;51.368;12.364;2023-11-18T04:32:49;93699.44;;;-141.84;100.00
15260;BME280;34462;51.368;12.364;2023-11-18T04:35:19;89990.66;;;-141.84;100.00
15260;BME280;34462;51.368;12.364;2023-11-18T04:37:49;91579.72;;;-141.84;100.00
15260;BME280;34462;51.368;12.364;2023-11-18T04:40:17;92109.53;;;-141.84;100.00
15260;BME280;34462;51.368;12.364;2023-11-18T04:42:47;93169.38;;;-141.84;100.00
15260;BME280;34462;51.368;12.364;2023-11-18T04:45:15;93699.44;;;-141.84;100.00
15260;BME280;34462;51.368;12.364;2023-11-18T04:47:43;93699.44;;;-141.84;100.00
15260;BME280;34462;51.368;12.364;2023-11-18T04:50:12;95289.94;;;-141.84;100.00
15260;BME280;34462;51.368;12.364;2023-11-18T04:52:40;95555.09;;;-141.84;100.00
15260;BME280;34462;51.368;12.364;2023-11-18T04:55:09;95555.09;;;-141.84;100.00
15260;BME280;34462;51.368;12.364;2023-11-18T04:57:41;95024.81;;;-141.84;100.00
15260;BME280;34462;51.368;12.364;2023-11-18T05:00:13;95555.09;;;-141.84;100.00
15260;BME280;34462;51.368;12.364;2023-11-18T05:02:44;93964.47;;;-141.84;100.00
15260;BME280;34462;51.368;12.364;2023-11-18T05:05:15;92639.44;;;-141.84;100.00
15260;BME280;34462;51.368;12.364;2023-11-18T05:07:43;88137.56;;;-141.84;100.00
15260;BME280;34462;51.368;12.364;2023-11-18T05:10:12;87343.63;;;-141.84;100.00
15260;BME280;34462;51.368;12.364;2023-11-18T05:12:40;90785.09;;;-141.84;100.00
15260;BME280;34462;51.368;12.364;2023-11-18T05:15:11;93699.44;;;-141.84;100.00
15260;BME280;34462;51.368;12.364;2023-11-18T05:17:40;94229.53;;;-141.84;100.00
15260;BME280;34462;51.368;12.364;2023-11-18T05:20:09;96615.84;;;-141.84;100.00
15260;BME280;34462;51.368;12.364;2023-11-18T05:22:38;95289.94;;;-141.84;100.00
15260;BME280;34462;51.368;12.364;2023-11-18T05:25:07;93434.41;;;-141.84;100.00
15260;BME280;34462;51.368;12.364;2023-11-18T05:27:37;90785.09;;;-141.84;100.00
15260;BME280;34462;51.368;12.364;2023-11-18T05:30:08;87079.03;;;-141.84;100.00
15260;BME280;34462;51.368;12.364;2023-11-18T05:32:38;87343.63;;;-141.84;100.00
15260;BME280;34462;51.368;12.364;2023-11-18T05:35:07;82847.66;;;-141.84;100.00
15260;BME280;34462;51.368;12.364;2023-11-18T05:37:38;82847.66;;;-141.84;100.00
15260;BME280;34462;51.368;12.364;2023-11-18T05:40:09;88137.56;;;-141.84;100.00
15260;BME280;34462;51.368;12.364;2023-11-18T05:42:38;93169.38;;;-141.84;100.00
15260;BME280;34462;51.368;12.364;2023-11-18T05:45:09;96881.06;;;-141.84;100.00
15260;BME280;34462;51.368;12.364;2023-11-18T05:47:46;99003.56;;;-141.84;100.00
15260;BME280;34462;51.368;12.364;2023-11-18T05:50:14;99003.56;;;-141.84;100.00
15260;BME280;34462;51.368;12.364;2023-11-18T05:52:43;98738.19;;;-141.84;100.00
15260;BME280;34462;51.368;12.364;2023-11-18T05:55:11;94494.59;;;-141.84;100.00
15260;BME280;34462;51.368;12.364;2023-11-18T05:57:39;90785.09;;;-141.84;100.00
15260;BME280;34462;51.368;12.364;2023-11-18T06:00:09;92904.41;;;-141.84;100.00
15260;BME280;34462;51.368;12.364;2023-11-18T06:02:39;96881.06;;;-141.84;100.00
15260;BME280;34462;51.368;12.364;2023-11-18T06:05:09;98472.84;;;-141.84;100.00
15260;BME280;34462;51.368;12.364;2023-11-18T06:07:39;99003.56;;;-141.84;100.00
15260;BME280;34462;51.368;12.364;2023-11-18T06:10:10;99799.78;;;-141.84;100.00
15260;BME280;34462;51.368;12.364;2023-11-18T06:12:39;100861.66;;;-141.84;100.00
15260;BME280;34462;51.368;12.364;2023-11-18T06:15:08;101392.69;;;-141.84;100.00
15260;BME280;34462;51.368;12.364;2023-11-18T06:17:44;101392.69;;;-141.84;100.00
15260;BME280;34462;51.368;12.364;2023-11-18T06:20:14;101923.81;;;-141.84;100.00
15260;BME280;34462;51.368;12.364;2023-11-18T06:22:44;101923.81;;;-141.84;100.00
15260;BME280;34462;51.368;12.364;2023-11-18T06:25:12;101658.25;;;-141.84;100.00
15260;BME280;34462;51.368;12.364;2023-11-18T06:27:43;101658.25;;;-141.84;100.00
15260;BME280;34462;51.368;12.364;2023-11-18T06:30:13;101392.69;;;-141.84;100.00
15260;BME280;34462;51.368;12.364;2023-11-18T06:32:42;99003.56;;;-141.84;100.00
15260;BME280;34462;51.368;12.364;2023-11-18T06:35:11;98738.19;;;-141.84;100.00
15260;BME280;34462;51.368;12.364;2023-11-18T06:37:43;101127.16;;;-141.84;100.00
15260;BME280;34462;51.368;12.364;2023-11-18T06:40:13;102189.38;;;-141.84;100.00
15260;BME280;34462;51.368;12.364;2023-11-18T06:42:46;100596.16;;;-141.84;100.00
15260;BME280;34462;51.368;12.364;2023-11-18T06:45:14;97411.59;;;-141.84;100.00
15260;BME280;34462;51.368;12.364;2023-11-18T06:47:43;99799.78;;;-141.84;100.00
15260;BME280;34462;51.368;12.364;2023-11-18T06:50:12;101127.16;;;-141.84;100.00
15260;BME280;34462;51.368;12.364;2023-11-18T06:52:44;101127.16;;;-141.84;100.00
15260;BME280;34462;51.368;12.364;2023-11-18T06:55:15;100861.66;;;-141.84;100.00
15260;BME280;34462;51.368;12.364;2023-11-18T06:57:43;101392.69;;;-141.84;100.00
15260;BME280;34462;51.368;12.364;2023-11-18T07:00:13;102189.38;;;-141.84;100.00
15260;BME280;34462;51.368;12.364;2023-11-18T07:02:42;103783.25;;;-141.84;100.00
15260;BME280;34462;51.368;12.364;2023-11-18T07:05:10;101658.25;;;-141.84;100.00
15260;BME280;34462;51.368;12.364;2023-11-18T07:07:41;94229.53;;;-141.84;100.00
15260;BME280;34462;51.368;12.364;2023-11-18T07:10:12;95555.09;;;-141.84;100.00
15260;BME280;34462;51.368;12.364;2023-11-18T07:12:40;93699.44;;;-141.84;100.00
15260;BME280;34462;51.368;12.364;2023-11-18T07:15:09;94229.53;;;-141.84;100.00
15260;BME280;34462;51.368;12.364;2023-11-18T07:17:38;94494.59;;;-141.84;100.00
15260;BME280;34462;51.368;12.364;2023-11-18T07:20:09;93964.47;;;-141.84;100.00
15260;BME280;34462;51.368;12.364;2023-11-18T07:22:40;95289.94;;;-141.84;100.00
15260;BME280;34462;51.368;12.364;2023-11-18T07:25:08;97146.31;;;-141.84;100.00
15260;BME280;34462;51.368;12.364;2023-11-18T07:27:38;93169.38;;;-141.84;100.00
15260;BME280;34462;51.368;12.364;2023-11-18T07:30:07;90255.47;;;-141.84;100.00
15260;BME280;34462;51.368;12.364;2023-11-18T07:32:38;87608.25;;;-141.84;100.00
15260;BME280;34462;51.368;12.364;2023-11-18T07:35:07;84169.50;;;-141.84;100.00
15260;BME280;34462;51.368;12.364;2023-11-18T07:37:36;84169.50;;;-141.84;100.00
15260;BME280;34462;51.368;12.364;2023-11-18T07:40:07;82583.34;;;-141.84;100.00
15260;BME280;34462;51.368;12.364;2023-11-18T07:42:40;79677.06;;;-141.84;100.00
15260;BME280;34462;51.368;12.364;2023-11-18T07:45:09;82847.66;;;-141.84;100.00
15260;BME280;34462;51.368;12.364;2023-11-18T07:47:45;83112.00;;;-141.84;100.00
15260;BME280;34462;51.368;12.364;2023-11-18T07:50:17;76508.97;;;-141.84;100.00
15260;BME280;34462;51.368;12.364;2023-11-18T07:52:47;74662.09;;;-141.84;100.00
15260;BME280;34462;51.368;12.364;2023-11-18T07:55:15;71234.38;;;-141.84;100.00
15260;BME280;34462;51.368;12.364;2023-11-18T07:57:45;64124.72;;;-141.84;100.00
15260;BME280;34462;51.368;12.364;2023-11-18T08:00:14;64124.72;;;-141.84;100.00
15260;BME280;34462;51.368;12.364;2023-11-18T08:02:42;65966.75;;;-141.84;100.00
15260;BME280;34462;51.368;12.364;2023-11-18T08:05:12;62809.50;;;-141.84;100.00
15260;BME280;34462;51.368;12.364;2023-11-18T08:07:41;44442.13;;;-141.84;97.93
15260;BME280;34462;51.368;12.364;2023-11-18T08:10:10;46013.16;;;-141.84;98.92
15260;BME280;34462;51.368;12.364;2023-11-18T08:12:40;55189.84;;;-141.84;100.00
15260;BME280;34462;51.368;12.364;2023-11-18T08:15:10;58341.03;;;-141.84;100.00
15260;BME280;34462;51.368;12.364;2023-11-18T08:17:38;51254.38;;;-141.84;99.40
15260;BME280;34462;51.368;12.364;2023-11-18T08:20:07;38476.78;;;-141.84;97.11
15260;BME280;34462;51.368;12.364;2023-11-18T08:22:41;32336.97;;;-141.84;95.90
15260;BME280;34462;51.368;12.364;2023-11-18T08:25:11;38029.59;;;-141.84;97.31
15260;BME280;34462;51.368;12.364;2023-11-18T08:27:41;48108.81;;;-141.84;99.09
15260;BME280;34462;51.368;12.364;2023-11-18T08:30:12;52565.75;;;-141.84;99.63
15260;BME280;34462;51.368;12.364;2023-11-18T08:32:42;35253.69;;;-141.84;96.24
15260;BME280;34462;51.368;12.364;2023-11-18T08:35:12;26392.03;;;-141.84;94.35
15260;BME280;34462;51.368;12.364;2023-11-18T08:37:42;28860.19;;;-141.84;95.19
15260;BME280;34462;51.368;12.364;2023-11-18T08:40:12;35549.53;;;-141.84;96.74
15260;BME280;34462;51.368;12.364;2023-11-18T08:42:44;38344.06;;;-141.84;97.06
15260;BME280;34462;51.368;12.364;2023-11-18T08:45:20;32218.72;;;-141.84;96.08
15260;BME280;34462;51.368;12.364;2023-11-18T08:47:54;42871.75;;;-141.84;98.21
15260;BME280;34462;51.368;12.364;2023-11-18T08:50:23;51516.59;;;-141.84;99.74
15260;BME280;34462;51.368;12.364;2023-11-18T08:52:52;48894.97;;;-141.84;99.23
15260;BME280;34462;51.368;12.364;2023-11-18T08:55:27;51254.38;;;-141.84;99.68
15260;BME280;34462;51.368;12.364;2023-11-18T08:58:11;33060.84;;;-141.84;95.87
15260;BME280;34462;51.368;12.364;2023-11-18T09:00:50;33262.75;;;-141.84;96.30
15260;BME280;34462;51.368;12.364;2023-11-18T09:03:23;38981.22;;;-141.84;97.37
15260;BME280;34462;51.368;12.364;2023-11-18T09:06:05;24727.13;;;-141.84;93.72
15260;BME280;34462;51.368;12.364;2023-11-18T09:08:47;25225.69;;;-141.84;93.69
15260;BME280;34462;51.368;12.364;2023-11-18T09:11:22;24139.06;;;-141.84;93.53
15260;BME280;34462;51.368;12.364;2023-11-18T09:13:51;24342.53;;;-141.84;93.54
15260;BME280;34462;51.368;12.364;2023-11-18T09:16:23;19594.34;;;-141.84;87.68
15260;BME280;34462;51.368;12.364;2023-11-18T09:18:52;19232.63;;;-141.84;85.79
15260;BME280;34462;51.368;12.364;2023-11-18T09:21:21;19212.31;;;-141.84;85.53
15260;BME280;34462;51.368;12.364;2023-11-18T09:23:52;19208.25;;;-141.84;85.62
15260;BME280;34462;51.368;12.364;2023-11-18T09:26:20;19126.97;;;-141.84;84.19
15260;BME280;34462;51.368;12.364;2023-11-18T09:28:48;19104.59;;;-141.84;84.03
15260;BME280;34462;51.368;12.364;2023-11-18T09:31:20;19124.94;;;-141.84;84.78
15260;BME280;34462;51.368;12.364;2023-11-18T09:33:50;19271.25;;;-141.84;86.25
15260;BME280;34462;51.368;12.364;2023-11-18T09:36:20;19366.75;;;-141.84;86.46
15260;BME280;34462;51.368;12.364;2023-11-18T09:38:50;19311.88;;;-141.84;85.84
15260;BME280;34462;51.368;12.364;2023-11-18T09:41:22;19149.31;;;-141.84;84.10
15260;BME280;34462;51.368;12.364;2023-11-18T09:43:52;19027.41;;;-141.84;80.50
15260;BME280;34462;51.368;12.364;2023-11-18T09:46:25;18990.81;;;-141.84;79.61
15260;BME280;34462;51.368;12.364;2023-11-18T09:49:12;19047.72;;;-141.84;80.61
15260;BME280;34462;51.368;12.364;2023-11-18T09:51:45;18988.78;;;-141.84;78.13
15260;BME280;34462;51.368;12.364;2023-11-18T09:54:24;18984.72;;;-141.84;75.66
15260;BME280;34462;51.368;12.364;2023-11-18T09:57:04;18988.78;;;-141.84;75.34
15260;BME280;34462;51.368;12.364;2023-11-18T09:59:46;18996.91;;;-141.84;74.68
15260;BME280;34462;51.368;12.364;2023-11-18T10:02:23;18976.59;;;-141.84;73.92
15260;BME280;34462;51.368;12.364;2023-11-18T10:04:56;18980.66;;;-141.84;74.55
15260;BME280;34462;51.368;12.364;2023-11-18T10:07:27;19011.13;;;-141.84;72.80
15260;BME280;34462;51.368;12.364;2023-11-18T10:09:59;18984.72;;;-141.84;72.32
15260;BME280;34462;51.368;12.364;2023-11-18T10:12:29;18952.22;;;-141.84;72.90
15260;BME280;34462;51.368;12.364;2023-11-18T10:14:59;18954.25;;;-141.84;72.55
15260;BME280;34462;51.368;12.364;2023-11-18T10:17:30;18958.31;;;-141.84;73.89
15260;BME280;34462;51.368;12.364;2023-11-18T10:20:05;18964.41;;;-141.84;73.05
15260;BME280;34462;51.368;12.364;2023-11-18T10:22:40;19005.03;;;-141.84;72.60
15260;BME280;34462;51.368;12.364;2023-11-18T10:25:08;18976.59;;;-141.84;71.21
15260;BME280;34462;51.368;12.364;2023-11-18T10:27:36;19000.97;;;-141.84;69.36
15260;BME280;34462;51.368;12.364;2023-11-18T10:30:07;18978.63;;;-141.84;69.19
15260;BME280;34462;51.368;12.364;2023-11-18T10:32:57;18996.91;;;-141.84;67.09
15260;BME280;34462;51.368;12.364;2023-11-18T10:35:34;18970.50;;;-141.84;64.81
15260;BME280;34462;51.368;12.364;2023-11-18T10:38:03;19009.09;;;-141.84;65.64
15260;BME280;34462;51.368;12.364;2023-11-18T10:40:32;19013.16;;;-141.84;64.20
15260;BME280;34462;51.368;12.364;2023-11-18T10:43:03;19037.56;;;-141.84;63.20
15260;BME280;34462;51.368;12.364;2023-11-18T10:45:36;19049.75;;;-141.84;63.58
15260;BME280;34462;51.368;12.364;2023-11-18T10:48:11;19057.88;;;-141.84;61.60
15260;BME280;34462;51.368;12.364;2023-11-18T10:50:47;19041.63;;;-141.84;59.91
15260;BME280;34462;51.368;12.364;2023-11-18T10:53:18;19017.25;;;-141.84;60.49
15260;BME280;34462;51.368;12.364;2023-11-18T10:55:48;19029.44;;;-141.84;61.76
15260;BME280;34462;51.368;12.364;2023-11-18T10:58:17;18976.59;;;-141.84;63.83
15260;BME280;34462;51.368;12.364;2023-11-18T11:00:50;18950.19;;;-141.84;66.62
15260;BME280;34462;51.368;12.364;2023-11-18T11:03:22;19003.00;;;-141.84;68.09
15260;BME280;34462;51.368;12.364;2023-11-18T11:05:53;18972.53;;;-141.84;68.94
15260;BME280;34462;51.368;12.364;2023-11-18T11:08:23;18960.34;;;-141.84;70.67
15260;BME280;34462;51.368;12.364;2023-11-18T11:11:08;18907.50;;;-141.84;72.13
15260;BME280;34462;51.368;12.364;2023-11-18T11:13:47;18877.03;;;-141.84;73.90
15260;BME280;34462;51.368;12.364;2023-11-18T11:16:19;18958.31;;;-141.84;73.94
15260;BME280;34462;51.368;12.364;2023-11-18T11:18:55;18931.91;;;-141.84;73.93
15260;BME280;34462;51.368;12.364;2023-11-18T11:21:26;18948.16;;;-141.84;73.89
15260;BME280;34462;51.368;12.364;2023-11-18T11:24:04;18950.19;;;-141.84;71.80
15260;BME280;34462;51.368;12.364;2023-11-18T11:26:50;18978.63;;;-141.84;70.41
15260;BME280;34462;51.368;12.364;2023-11-18T11:29:32;18952.22;;;-141.84;70.31
15260;BME280;34462;51.368;12.364;2023-11-18T11:32:15;18950.19;;;-141.84;70.21
15260;BME280;34462;51.368;12.364;2023-11-18T11:34:53;18988.78;;;-141.84;70.24
15260;BME280;34462;51.368;12.364;2023-11-18T11:37:25;19003.00;;;-141.84;69.48
15260;BME280;34462;51.368;12.364;2023-11-18T11:39:55;19000.97;;;-141.84;68.94
15260;BME280;34462;51.368;12.364;2023-11-18T11:42:27;18978.63;;;-141.84;64.14
15260;BME280;34462;51.368;12.364;2023-11-18T11:44:57;19021.31;;;-141.84;66.58
15260;BME280;34462;51.368;12.364;2023-11-18T11:47:26;18990.81;;;-141.84;67.47
15260;BME280;34462;51.368;12.364;2023-11-18T11:50:05;19015.19;;;-141.84;68.10
15260;BME280;34462;51.368;12.364;2023-11-18T11:52:48;19021.31;;;-141.84;67.98
15260;BME280;34462;51.368;12.364;2023-11-18T11:55:36;19017.25;;;-141.84;68.39
15260;BME280;34462;51.368;12.364;2023-11-18T11:58:26;19031.47;;;-141.84;67.87
15260;BME280;34462;51.368;12.364;2023-11-18T12:00:55;19031.47;;;-141.84;65.68
15260;BME280;34462;51.368;12.364;2023-11-18T12:03:23;19013.16;;;-141.84;65.06
15260;BME280;34462;51.368;12.364;2023-11-18T12:05:55;19011.13;;;-141.84;65.55
15260;BME280;34462;51.368;12.364;2023-11-18T12:08:42;19019.28;;;-141.84;65.18
15260;BME280;34462;51.368;12.364;2023-11-18T12:11:12;19035.53;;;-141.84;66.39
15260;BME280;34462;51.368;12.364;2023-11-18T12:14:01;18972.53;;;-141.84;67.73
15260;BME280;34462;51.368;12.364;2023-11-18T12:16:59;18964.41;;;-141.84;66.83
15260;BME280;34462;51.368;12.364;2023-11-18T12:19:37;18974.56;;;-141.84;67.70
15260;BME280;34462;51.368;12.364;2023-11-18T12:22:15;18960.34;;;-141.84;69.09
15260;BME280;34462;51.368;12.364;2023-11-18T12:25:34;18935.97;;;-141.84;68.75
15260;BME280;34462;51.368;12.364;2023-11-18T12:28:16;18946.13;;;-141.84;68.80
15260;BME280;34462;51.368;12.364;2023-11-18T12:30:48;18954.25;;;-141.84;68.56
15260;BME280;34462;51.368;12.364;2023-11-18T12:34:01;18976.59;;;-141.84;68.31
15260;BME280;34462;51.368;12.364;2023-11-18T12:37:17;19049.75;;;-141.84;66.75
15260;BME280;34462;51.368;12.364;2023-11-18T12:40:27;19104.59;;;-141.84;59.63
15260;BME280;34462;51.368;12.364;2023-11-18T12:43:07;19057.88;;;-141.84;57.64
15260;BME280;34462;51.368;12.364;2023-11-18T12:46:20;19086.31;;;-141.84;57.75